createdAt,value
2018-10-11T00:00:02.290Z,10.70
2018-10-11T00:02:30.991Z,11.10
2018-10-11T00:04:59.654Z,10.67
2018-10-11T00:07:28.375Z,10.47
2018-10-11T00:09:57.089Z,10.73
2018-10-11T00:12:25.855Z,10.07
2018-10-11T00:14:54.516Z,10.37
2018-10-11T00:17:23.212Z,10.73
2018-10-11T00:19:51.873Z,11.77
2018-10-11T00:22:20.526Z,12.53
2018-10-11T00:24:50.114Z,14.60
2018-10-11T00:27:18.774Z,14.37
2018-10-11T00:29:47.511Z,15.37
2018-10-11T00:32:16.230Z,16.73
2018-10-11T00:34:44.947Z,17.20
2018-10-11T00:37:13.613Z,17.60
2018-10-11T00:39:42.258Z,19.87
2018-10-11T00:42:10.915Z,18.87
2018-10-11T00:44:39.641Z,18.83
2018-10-11T00:47:08.513Z,18.70
2018-10-11T00:49:37.259Z,19.73
2018-10-11T00:52:05.868Z,20.00
2018-10-11T00:54:34.524Z,20.20
2018-10-11T00:57:03.195Z,20.17
2018-10-11T00:59:31.857Z,20.37
2018-10-11T01:02:00.603Z,20.40
2018-10-11T01:04:29.258Z,19.03
2018-10-11T01:06:57.952Z,19.03
2018-10-11T01:09:26.721Z,19.30
2018-10-11T01:11:55.340Z,19.53
2018-10-11T01:14:24.025Z,20.10
2018-10-11T01:16:52.644Z,19.20
2018-10-11T01:19:21.253Z,19.17
2018-10-11T01:21:49.927Z,19.77
2018-10-11T01:24:18.512Z,19.50
2018-10-11T01:26:47.129Z,18.90
2018-10-11T01:29:15.774Z,19.03
2018-10-11T01:31:44.410Z,18.70
2018-10-11T01:34:13.080Z,18.47
2018-10-11T01:36:41.772Z,17.47
2018-10-11T01:39:10.525Z,18.30
2018-10-11T01:41:39.221Z,18.60
2018-10-11T01:44:07.941Z,18.00
2018-10-11T01:46:36.603Z,18.87
2018-10-11T01:49:05.320Z,18.90
2018-10-11T01:51:33.978Z,20.07
2018-10-11T01:54:02.569Z,18.90
2018-10-11T01:56:31.262Z,19.63
2018-10-11T01:58:59.900Z,19.53
2018-10-11T02:01:28.557Z,18.83
2018-10-11T02:03:57.226Z,18.03
2018-10-11T02:06:26.020Z,18.30
2018-10-11T02:08:54.616Z,18.83
2018-10-11T02:11:23.311Z,19.20
2018-10-11T02:13:51.994Z,18.20
2018-10-11T02:16:20.640Z,17.23
2018-10-11T02:18:49.308Z,18.37
2018-10-11T02:21:17.956Z,18.77
2018-10-11T02:23:46.565Z,17.87
2018-10-11T02:26:15.525Z,17.57
2018-10-11T02:28:44.244Z,18.27
2018-10-11T02:31:12.878Z,18.73
2018-10-11T02:33:41.493Z,18.00
2018-10-11T02:36:10.170Z,17.83
2018-10-11T02:38:38.819Z,18.00
2018-10-11T02:41:07.461Z,18.33
2018-10-11T02:43:36.104Z,18.90
2018-10-11T02:46:04.774Z,21.17
2018-10-11T02:48:33.522Z,18.87
2018-10-11T02:51:02.222Z,19.33
2018-10-11T02:53:30.913Z,19.27
2018-10-11T02:55:59.596Z,20.47
2018-10-11T02:58:39.445Z,20.77
2018-10-11T03:01:08.539Z,20.27
2018-10-11T03:03:37.328Z,20.63
2018-10-11T03:06:06.120Z,20.13
2018-10-11T03:08:35.174Z,20.63
2018-10-11T03:11:03.938Z,19.83
2018-10-11T03:13:32.752Z,20.57
2018-10-11T03:16:01.400Z,18.97
2018-10-11T03:18:30.132Z,19.17
2018-10-11T03:20:58.822Z,19.33
2018-10-11T03:23:27.476Z,18.10
2018-10-11T03:25:56.099Z,19.20
2018-10-11T03:28:24.830Z,18.43
2018-10-11T03:30:53.451Z,18.57
2018-10-11T03:33:22.113Z,18.73
2018-10-11T03:35:50.736Z,19.60
2018-10-11T03:38:19.409Z,19.53
2018-10-11T03:40:48.066Z,19.07
2018-10-11T03:43:16.690Z,18.67
2018-10-11T03:45:45.428Z,19.10
2018-10-11T03:48:14.087Z,17.93
2018-10-11T03:50:42.735Z,17.83
2018-10-11T03:53:11.394Z,17.50
2018-10-11T03:55:39.973Z,18.77
2018-10-11T03:58:08.650Z,19.87
2018-10-11T04:00:37.405Z,18.53
2018-10-11T04:03:06.097Z,19.03
2018-10-11T04:07:43.662Z,18.97
2018-10-11T04:10:12.329Z,18.83
2018-10-11T04:12:41.015Z,20.93
2018-10-11T04:15:09.832Z,19.60
2018-10-11T04:17:38.422Z,20.70
2018-10-11T04:20:07.174Z,18.97
2018-10-11T04:22:35.837Z,19.57
2018-10-11T04:25:04.445Z,19.50
2018-10-11T04:27:33.097Z,19.20
2018-10-11T04:30:01.872Z,18.93
2018-10-11T04:32:30.626Z,18.90
2018-10-11T04:34:59.225Z,18.80
2018-10-11T04:37:27.869Z,19.23
2018-10-11T04:39:56.525Z,18.67
2018-10-11T04:42:25.196Z,19.70
2018-10-11T04:44:53.836Z,18.10
2018-10-11T04:47:22.469Z,18.93
2018-10-11T04:49:51.236Z,19.30
2018-10-11T04:52:19.869Z,18.57
2018-10-11T04:54:48.534Z,19.30
2018-10-11T04:57:17.277Z,19.07
2018-10-11T04:59:45.963Z,19.80
2018-10-11T05:02:14.651Z,19.47
2018-10-11T05:04:43.475Z,18.73
2018-10-11T05:07:12.541Z,20.60
2018-10-11T05:09:41.229Z,19.87
2018-10-11T05:12:09.979Z,21.10
2018-10-11T05:14:38.767Z,21.57
2018-10-11T05:17:07.534Z,20.30
2018-10-11T05:19:38.329Z,19.20
2018-10-11T05:22:07.043Z,18.27
2018-10-11T05:24:35.712Z,18.50
2018-10-11T05:27:04.484Z,19.83
2018-10-11T05:29:33.181Z,20.80
2018-10-11T05:32:01.941Z,21.03
2018-10-11T05:34:30.697Z,20.83
2018-10-11T05:36:59.339Z,20.07
2018-10-11T05:39:28.137Z,21.80
2018-10-11T05:41:56.883Z,20.30
2018-10-11T05:44:25.722Z,22.90
2018-10-11T05:46:54.422Z,23.10
2018-10-11T05:49:23.386Z,23.10
2018-10-11T05:51:52.208Z,21.60
2018-10-11T05:54:20.983Z,23.83
2018-10-11T05:56:50.622Z,21.03
2018-10-11T05:59:19.391Z,24.87
2018-10-11T06:01:48.172Z,24.10
2018-10-11T06:04:16.960Z,22.30
2018-10-11T06:06:47.217Z,21.57
2018-10-11T06:09:15.966Z,22.83
2018-10-11T06:11:45.462Z,22.53
2018-10-11T06:14:15.164Z,26.10
2018-10-11T06:16:44.237Z,22.83
2018-10-11T06:19:14.539Z,22.70
2018-10-11T06:21:43.683Z,23.27
2018-10-11T06:24:12.476Z,23.87
2018-10-11T06:26:41.443Z,23.47
2018-10-11T06:29:10.542Z,25.57
2018-10-11T06:31:39.334Z,26.53
2018-10-11T06:34:08.041Z,26.23
2018-10-11T06:36:36.986Z,26.17
2018-10-11T06:39:08.321Z,27.00
2018-10-11T06:41:38.073Z,27.40
2018-10-11T06:44:37.726Z,27.03
2018-10-11T06:47:06.722Z,25.87
2018-10-11T06:49:35.493Z,26.67
2018-10-11T06:52:04.231Z,28.00
2018-10-11T06:54:33.021Z,27.20
2018-10-11T06:57:01.777Z,28.20
2018-10-11T06:59:30.496Z,28.87
2018-10-11T07:01:59.356Z,29.37
2018-10-11T07:04:28.112Z,28.23
2018-10-11T07:06:56.834Z,29.23
2018-10-11T07:09:25.630Z,28.70
2018-10-11T07:11:54.284Z,29.30
2018-10-11T07:14:22.941Z,29.23
2018-10-11T07:16:51.631Z,29.97
2018-10-11T07:19:20.392Z,29.03
2018-10-11T07:21:49.068Z,28.53
2018-10-11T07:24:17.715Z,29.33
2018-10-11T07:26:46.369Z,29.07
2018-10-11T07:29:15.058Z,29.53
2018-10-11T07:31:43.679Z,29.00
2018-10-11T07:34:12.317Z,30.03
2018-10-11T07:36:41.709Z,24.20
2018-10-11T07:39:12.341Z,25.97
2018-10-11T07:41:41.162Z,24.80
2018-10-11T07:44:10.060Z,24.27
2018-10-11T07:46:39.132Z,25.13
2018-10-11T07:49:08.535Z,26.43
2018-10-11T07:51:37.608Z,25.40
2018-10-11T07:54:06.250Z,23.73
2018-10-11T07:56:34.911Z,24.13
2018-10-11T07:59:03.559Z,22.07
2018-10-11T08:01:32.347Z,24.23
2018-10-11T08:04:00.985Z,21.90
2018-10-11T08:06:29.696Z,23.60
2018-10-11T08:08:58.385Z,23.00
2018-10-11T08:11:27.205Z,21.43
2018-10-11T08:13:55.876Z,21.10
2018-10-11T08:16:24.599Z,21.37
2018-10-11T08:18:53.324Z,21.27
2018-10-11T08:21:22.058Z,20.93
2018-10-11T08:23:50.745Z,20.67
2018-10-11T08:26:19.709Z,19.63
2018-10-11T08:28:47.980Z,18.13
2018-10-11T08:31:16.605Z,19.63
2018-10-11T08:33:45.261Z,18.50
2018-10-11T17:50:52.505Z,14.77
2018-10-11T17:53:21.409Z,14.30
2018-10-11T17:55:52.798Z,14.33
2018-10-11T17:58:21.513Z,14.50
2018-10-11T18:00:50.163Z,15.10
2018-10-11T18:03:19.177Z,14.70
2018-10-11T18:06:08.629Z,14.20
2018-10-11T18:08:37.479Z,16.77
2018-10-11T18:11:06.413Z,15.27
2018-10-11T18:15:42.413Z,14.80
2018-10-11T18:18:11.074Z,14.07
2018-10-11T18:20:39.748Z,14.67
2018-10-11T18:23:08.486Z,13.97
2018-10-11T18:25:37.164Z,14.10
2018-10-11T18:28:05.933Z,14.60
2018-10-11T18:30:35.843Z,14.47
2018-10-11T18:33:04.519Z,14.03
2018-10-11T18:35:33.350Z,14.50
2018-10-11T18:38:02.048Z,13.60
2018-10-11T18:40:30.763Z,14.63
2018-10-11T18:42:59.440Z,14.10
2018-10-11T18:45:28.376Z,14.60
2018-10-11T18:47:57.120Z,14.40
2018-10-11T18:50:25.825Z,15.17
2018-10-11T18:52:54.510Z,15.97
2018-10-11T18:55:23.397Z,15.43
2018-10-11T18:57:52.168Z,14.73
2018-10-11T19:00:22.748Z,18.87
2018-10-11T19:02:51.459Z,15.13
2018-10-11T19:05:20.136Z,14.73
2018-10-11T19:07:49.478Z,15.10
2018-10-11T19:10:18.301Z,15.73
2018-10-11T19:12:47.161Z,15.30
2018-10-11T19:16:20.547Z,15.97
2018-10-11T19:20:45.181Z,15.53
2018-10-11T19:28:05.565Z,15.37
2018-10-11T19:30:34.616Z,15.23
2018-10-11T19:33:03.253Z,19.80
2018-10-11T19:35:31.949Z,23.60
2018-10-11T19:38:01.110Z,15.40
2018-10-11T19:40:29.728Z,14.47
2018-10-11T19:42:58.340Z,15.07
2018-10-11T19:45:27.070Z,14.63
2018-10-11T19:47:55.709Z,15.27
2018-10-11T19:50:24.454Z,14.70
2018-10-11T19:52:53.153Z,14.90
2018-10-11T19:55:21.885Z,14.93
2018-10-11T19:57:50.708Z,14.53
2018-10-11T20:00:19.478Z,13.37
2018-10-11T20:02:48.110Z,14.43
2018-10-11T20:05:16.770Z,14.63
2018-10-11T20:07:45.393Z,13.23
2018-10-11T20:10:14.507Z,15.30
2018-10-11T20:12:43.153Z,14.67
2018-10-11T20:15:11.861Z,14.07
2018-10-11T20:17:40.562Z,14.10
2018-10-11T20:20:09.218Z,13.63
2018-10-11T20:22:37.887Z,14.10
2018-10-11T20:25:06.925Z,12.40
2018-10-11T20:27:35.575Z,13.23
2018-10-11T20:30:06.010Z,13.17
2018-10-11T20:32:34.637Z,12.80
2018-10-11T20:35:03.285Z,13.83
2018-10-11T20:37:31.909Z,15.90
2018-10-11T20:40:01.227Z,13.33
2018-10-11T20:42:29.919Z,14.27
2018-10-11T20:44:58.606Z,13.73
2018-10-11T20:47:27.231Z,13.40
2018-10-11T20:49:55.909Z,14.37
2018-10-11T20:52:24.635Z,14.20
2018-10-11T20:54:53.517Z,13.63
2018-10-11T20:57:22.303Z,14.37
2018-10-11T20:59:51.923Z,14.30
2018-10-11T21:02:20.600Z,14.40
2018-10-11T21:04:49.288Z,15.20
2018-10-11T21:07:17.978Z,14.20
2018-10-11T21:09:46.700Z,14.30
2018-10-11T21:12:15.493Z,13.53
2018-10-11T21:14:44.179Z,15.30
2018-10-11T21:17:12.928Z,14.17
2018-10-11T21:19:41.612Z,14.23
2018-10-11T21:22:10.261Z,14.30
2018-10-11T21:24:39.011Z,14.00
2018-10-11T21:27:07.710Z,14.77
2018-10-11T21:29:36.567Z,13.90
2018-10-11T21:32:05.249Z,13.87
2018-10-11T21:34:33.999Z,14.63
2018-10-11T21:37:02.709Z,14.00
2018-10-11T21:39:31.475Z,14.13
2018-10-11T21:42:00.113Z,14.03
2018-10-11T21:44:29.021Z,13.33
2018-10-11T21:46:57.691Z,14.47
2018-10-11T21:49:26.429Z,14.30
2018-10-11T21:51:55.207Z,14.53
2018-10-11T21:54:23.905Z,14.53
2018-10-11T21:56:52.684Z,15.37
2018-10-11T21:59:21.404Z,15.47
2018-10-11T22:01:50.109Z,15.63
2018-10-11T22:04:18.929Z,15.17
2018-10-11T22:06:47.612Z,15.60
2018-10-11T22:09:16.343Z,14.53
2018-10-11T22:11:45.122Z,14.77
2018-10-11T22:14:13.788Z,15.23
2018-10-11T22:16:42.520Z,15.90
2018-10-11T22:19:11.199Z,14.83
2018-10-11T22:21:39.925Z,15.27
2018-10-11T22:24:09.160Z,15.07
2018-10-11T22:26:37.829Z,14.43
2018-10-11T22:29:06.528Z,15.77
2018-10-11T22:31:35.200Z,15.83
2018-10-11T22:34:03.918Z,15.03
2018-10-11T22:36:32.701Z,15.20
2018-10-11T22:39:01.349Z,14.87
2018-10-11T22:41:30.173Z,15.17
2018-10-11T22:43:58.741Z,14.53
2018-10-11T22:46:27.591Z,14.43
2018-10-11T22:48:56.299Z,14.87
2018-10-11T22:51:24.972Z,14.80
2018-10-11T22:53:53.612Z,15.10
2018-10-11T22:56:22.656Z,15.53
2018-10-11T22:58:52.391Z,15.47
2018-10-11T23:01:21.927Z,16.17
2018-10-11T23:03:50.624Z,15.00
2018-10-11T23:06:19.272Z,14.47
2018-10-11T23:08:47.911Z,16.03
2018-10-11T23:11:16.746Z,16.37
2018-10-11T23:13:45.354Z,15.40
2018-10-11T23:16:44.711Z,15.63
2018-10-11T23:19:13.359Z,14.13
2018-10-11T23:21:41.990Z,15.57
2018-10-11T23:24:10.633Z,24.13
2018-10-11T23:26:39.300Z,16.63
2018-10-11T23:29:07.937Z,15.90
2018-10-11T23:31:36.637Z,15.20
2018-10-11T23:34:05.305Z,14.97
2018-10-11T23:36:33.948Z,15.07
2018-10-11T23:39:02.579Z,15.30
2018-10-11T23:41:31.164Z,15.50
2018-10-11T23:43:59.783Z,15.03
2018-10-11T23:46:28.465Z,15.57
2018-10-11T23:48:57.126Z,14.77
2018-10-11T23:51:25.776Z,14.33
2018-10-11T23:53:54.444Z,14.37
2018-10-11T23:56:23.096Z,15.20
2018-10-11T23:58:51.711Z,15.33
